Time;durP1;ratioP1;P1;durP2;ratioP2;P2;SDS_P1;SDS_P2;PMS_P1;PMS_P2;Temp;Humidity;BMP_temperature;BMP_pressure;BME280_temperature;BME280_humidity;BME280_pressure;Samples;Min_cycle;Max_cycle;Signal;HPM_P1;HPM_P2
2024/04/04 00:00:20;;;;;;;15.50;9.95;;;;;;;;;;5067265;28;20387;-48
2024/04/04 00:02:46;;;;;;;11.23;9.18;;;;;;;;;;5051591;28;20025;-48
2024/04/04 00:05:13;;;;;;;10.40;8.20;;;;;;;;;;5051150;28;20044;-48
2024/04/04 00:07:39;;;;;;;11.63;9.05;;;;;;;;;;5058475;28;20021;-48
2024/04/04 00:10:05;;;;;;;10.07;8.07;;;;;;;;;;5069845;28;20029;-48
2024/04/04 00:12:31;;;;;;;12.67;9.13;;;;;;;;;;5069272;28;20028;-49
2024/04/04 00:14:59;;;;;;;13.10;8.70;;;;;;;;;;5070007;28;20031;-48
2024/04/04 00:17:25;;;;;;;12.98;8.93;;;;;;;;;;5051645;28;20029;-48
2024/04/04 00:19:52;;;;;;;11.60;9.02;;;;;;;;;;5056330;28;20433;-48
2024/04/04 00:22:18;;;;;;;11.70;9.30;;;;;;;;;;5056874;28;20491;-48
2024/04/04 00:24:44;;;;;;;9.30;8.10;;;;;;;;;;5070364;28;20020;-48
2024/04/04 00:27:10;;;;;;;12.30;8.68;;;;;;;;;;5062374;28;20068;-48
2024/04/04 00:29:37;;;;;;;10.38;8.23;;;;;;;;;;5049983;28;20437;-48
2024/04/04 00:32:03;;;;;;;20.43;8.57;;;;;;;;;;5051360;28;20037;-48
2024/04/04 00:34:30;;;;;;;9.55;7.80;;;;;;;;;;5051449;28;20029;-49
2024/04/04 00:36:56;;;;;;;10.18;7.78;;;;;;;;;;5050033;28;20036;-48
2024/04/04 00:39:22;;;;;;;8.60;7.47;;;;;;;;;;5059081;28;20059;-48
2024/04/04 00:41:48;;;;;;;10.15;8.13;;;;;;;;;;5071126;28;20052;-48
2024/04/04 00:44:15;;;;;;;12.68;7.57;;;;;;;;;;5071257;28;20020;-48
2024/04/04 00:46:41;;;;;;;10.30;7.83;;;;;;;;;;5071228;28;20028;-49
2024/04/04 00:49:07;;;;;;;17.57;9.07;;;;;;;;;;5070075;28;20021;-48
2024/04/04 00:51:34;;;;;;;16.35;9.90;;;;;;;;;;5071034;28;20269;-48
2024/04/04 00:54:00;;;;;;;13.40;9.90;;;;;;;;;;5071290;28;20394;-48
2024/04/04 00:56:26;;;;;;;11.45;10.25;;;;;;;;;;5071108;28;20266;-48
2024/04/04 00:58:53;;;;;;;11.80;10.37;;;;;;;;;;5069875;28;20216;-50
2024/04/04 01:01:19;;;;;;;14.23;9.68;;;;;;;;;;5069606;28;20070;-48
2024/04/04 01:03:45;;;;;;;14.75;11.30;;;;;;;;;;5071244;28;20112;-49
2024/04/04 01:06:12;;;;;;;18.05;11.40;;;;;;;;;;5069783;28;20021;-49
2024/04/04 01:08:38;;;;;;;16.27;11.70;;;;;;;;;;5070953;28;20029;-48
2024/04/04 01:11:04;;;;;;;17.85;12.43;;;;;;;;;;5071052;28;20064;-48
2024/04/04 01:13:30;;;;;;;19.77;13.40;;;;;;;;;;5071016;28;20050;-49
2024/04/04 01:15:56;;;;;;;19.17;12.70;;;;;;;;;;5062249;28;20013;-48
2024/04/04 01:18:23;;;;;;;17.00;11.63;;;;;;;;;;5054733;28;20029;-48
2024/04/04 01:20:49;;;;;;;20.13;13.05;;;;;;;;;;5054537;28;20068;-48
2024/04/04 01:23:15;;;;;;;18.77;12.90;;;;;;;;;;5054614;28;20518;-49
2024/04/04 01:25:41;;;;;;;16.08;11.48;;;;;;;;;;5058076;28;20021;-51
2024/04/04 01:28:07;;;;;;;19.15;12.90;;;;;;;;;;5045002;28;20399;-48
2024/04/04 01:30:34;;;;;;;15.30;11.50;;;;;;;;;;5058841;28;20508;-48
2024/04/04 01:33:00;;;;;;;18.63;12.47;;;;;;;;;;5059034;28;20275;-49
2024/04/04 01:35:26;;;;;;;17.10;12.57;;;;;;;;;;5054791;28;20764;-49
2024/04/04 01:37:52;;;;;;;17.30;12.82;;;;;;;;;;5072980;28;20086;-48
2024/04/04 01:40:18;;;;;;;15.85;12.38;;;;;;;;;;5074164;28;20024;-48
2024/04/04 01:42:45;;;;;;;22.85;12.25;;;;;;;;;;5074177;28;20029;-48
2024/04/04 01:45:11;;;;;;;19.38;14.18;;;;;;;;;;5073112;28;20028;-49
2024/04/04 01:47:37;;;;;;;20.42;13.80;;;;;;;;;;5073564;28;20029;-48
2024/04/04 01:50:05;;;;;;;16.50;12.27;;;;;;;;;;5052759;28;20358;-48
2024/04/04 01:52:32;;;;;;;19.95;13.38;;;;;;;;;;5053960;28;20029;-49
2024/04/04 01:54:58;;;;;;;21.98;15.32;;;;;;;;;;5053985;28;20438;-50
2024/04/04 01:57:24;;;;;;;22.97;14.10;;;;;;;;;;5053848;28;20115;-48
2024/04/04 01:59:53;;;;;;;20.93;14.20;;;;;;;;;;5053843;28;20271;-49
2024/04/04 02:02:20;;;;;;;24.27;12.80;;;;;;;;;;5053833;28;20298;-49
2024/04/04 02:04:46;;;;;;;17.20;14.07;;;;;;;;;;5054381;28;20021;-48
2024/04/04 02:07:12;;;;;;;20.83;15.73;;;;;;;;;;5053725;28;20517;-48
2024/04/04 02:09:38;;;;;;;23.20;15.50;;;;;;;;;;5053811;28;20398;-51
2024/04/04 02:12:05;;;;;;;19.40;14.32;;;;;;;;;;5052534;28;20029;-48
2024/04/04 02:14:31;;;;;;;17.77;13.37;;;;;;;;;;5053760;28;20479;-48
2024/04/04 02:16:58;;;;;;;20.15;14.07;;;;;;;;;;5053639;28;20049;-48
2024/04/04 02:19:24;;;;;;;15.83;12.90;;;;;;;;;;5053535;28;20398;-49
2024/04/04 02:21:50;;;;;;;16.20;13.43;;;;;;;;;;5053182;28;20279;-48
2024/04/04 02:24:17;;;;;;;17.65;11.85;;;;;;;;;;5054804;28;20029;-49
2024/04/04 02:26:47;;;;;;;20.58;13.45;;;;;;;;;;5071894;28;20127;-49
2024/04/04 02:29:13;;;;;;;14.82;12.20;;;;;;;;;;5073349;28;20029;-48
2024/04/04 02:31:39;;;;;;;23.52;12.65;;;;;;;;;;5071591;28;20036;-48
2024/04/04 02:34:05;;;;;;;16.67;12.32;;;;;;;;;;5073048;28;20033;-48
2024/04/04 02:36:31;;;;;;;15.18;12.15;;;;;;;;;;5057242;28;20123;-49
2024/04/04 02:38:58;;;;;;;19.77;12.20;;;;;;;;;;5053006;28;20029;-49
2024/04/04 02:41:24;;;;;;;16.35;12.18;;;;;;;;;;5052691;28;20036;-48
2024/04/04 02:43:50;;;;;;;18.25;12.77;;;;;;;;;;5057977;28;20035;-49
2024/04/04 02:46:16;;;;;;;15.52;12.32;;;;;;;;;;5047357;28;20021;-48
2024/04/04 02:48:43;;;;;;;20.70;12.85;;;;;;;;;;5053034;28;20183;-48
2024/04/04 02:51:09;;;;;;;16.15;12.50;;;;;;;;;;5062792;28;20048;-53
2024/04/04 02:53:35;;;;;;;24.38;13.32;;;;;;;;;;5061669;28;20025;-49
2024/04/04 02:56:01;;;;;;;16.77;12.38;;;;;;;;;;5063788;28;20066;-48
2024/04/04 02:58:27;;;;;;;18.45;11.55;;;;;;;;;;5051661;28;20108;-49
2024/04/04 03:00:54;;;;;;;15.23;11.80;;;;;;;;;;5053759;28;20433;-50
2024/04/04 03:03:20;;;;;;;22.20;14.93;;;;;;;;;;5058642;28;20447;-50
2024/04/04 03:05:47;;;;;;;19.83;14.18;;;;;;;;;;5052851;28;20029;-49
2024/04/04 03:08:13;;;;;;;20.45;14.75;;;;;;;;;;5052548;28;20603;-50
2024/04/04 03:10:39;;;;;;;22.45;14.70;;;;;;;;;;5051242;28;20021;-49
2024/04/04 03:13:06;;;;;;;24.35;15.73;;;;;;;;;;5051274;28;20483;-49
2024/04/04 03:15:32;;;;;;;30.17;16.98;;;;;;;;;;5057991;28;20398;-48
2024/04/04 03:17:58;;;;;;;20.45;15.75;;;;;;;;;;5058653;28;20477;-49
2024/04/04 03:20:25;;;;;;;18.03;14.30;;;;;;;;;;5052373;28;20537;-48
2024/04/04 03:22:51;;;;;;;21.93;15.90;;;;;;;;;;5071010;28;20282;-48
2024/04/04 03:25:17;;;;;;;22.73;14.77;;;;;;;;;;5070190;28;20313;-50
2024/04/04 03:27:43;;;;;;;19.52;14.48;;;;;;;;;;5060057;28;20062;-49
2024/04/04 03:30:10;;;;;;;19.85;14.68;;;;;;;;;;5071170;28;20028;-48
2024/04/04 03:32:37;;;;;;;16.75;14.18;;;;;;;;;;5068281;28;20032;-48
2024/04/04 03:35:03;;;;;;;19.83;13.73;;;;;;;;;;5060341;28;20039;-48
2024/04/04 03:37:30;;;;;;;20.63;14.30;;;;;;;;;;5068286;28;20555;-48
2024/04/04 03:39:56;;;;;;;19.13;14.07;;;;;;;;;;5064744;28;20081;-49
2024/04/04 03:42:22;;;;;;;15.30;13.07;;;;;;;;;;5052011;28;20112;-48
2024/04/04 03:44:53;;;;;;;20.13;14.02;;;;;;;;;;5065873;28;20036;-48
2024/04/04 03:47:20;;;;;;;23.67;16.25;;;;;;;;;;5068762;28;20036;-49
2024/04/04 03:49:47;;;;;;;;;;;;;;;;;;5056678;28;20021;-46
2024/04/04 03:52:14;;;;;;;20.38;14.02;;;;;;;;;;5050618;28;20003;-48
2024/04/04 03:54:41;;;;;;;25.73;16.23;;;;;;;;;;5051770;28;20036;-48
2024/04/04 03:57:08;;;;;;;26.58;16.92;;;;;;;;;;5052839;28;20082;-48
2024/04/04 03:59:37;;;;;;;22.67;16.90;;;;;;;;;;5050202;28;20028;-47
2024/04/04 04:02:04;;;;;;;24.58;16.38;;;;;;;;;;5050171;28;20052;-48
2024/04/04 04:04:30;;;;;;;21.23;15.82;;;;;;;;;;5049727;28;20036;-48
2024/04/04 04:06:56;;;;;;;23.95;16.52;;;;;;;;;;5048447;28;20498;-48
2024/04/04 04:09:22;;;;;;;22.77;17.23;;;;;;;;;;5048395;28;20021;-47
2024/04/04 04:11:49;;;;;;;22.23;15.43;;;;;;;;;;5049546;28;20340;-48
2024/04/04 04:14:16;;;;;;;26.33;17.27;;;;;;;;;;5049624;28;20029;-48
2024/04/04 04:16:42;;;;;;;27.08;16.52;;;;;;;;;;5049694;28;20057;-48
2024/04/04 04:19:08;;;;;;;24.65;15.85;;;;;;;;;;5050360;28;20028;-48
2024/04/04 04:21:34;;;;;;;32.30;18.17;;;;;;;;;;5051284;28;20028;-49
2024/04/04 04:24:02;;;;;;;25.85;16.02;;;;;;;;;;5051483;28;20040;-48
2024/04/04 04:26:30;;;;;;;22.85;15.48;;;;;;;;;;5051289;28;20037;-49
2024/04/04 04:28:56;;;;;;;24.98;16.83;;;;;;;;;;5056577;22;20052;-48
2024/04/04 04:31:27;;;;;;;22.05;16.17;;;;;;;;;;5029872;28;20084;-48
2024/04/04 04:33:54;;;;;;;25.33;15.90;;;;;;;;;;5031798;28;20075;-48
2024/04/04 04:36:20;;;;;;;20.27;16.30;;;;;;;;;;5031585;28;20095;-48
2024/04/04 04:38:46;;;;;;;24.38;16.67;;;;;;;;;;5031457;28;20132;-48
2024/04/04 04:41:12;;;;;;;32.72;17.95;;;;;;;;;;5031184;28;20018;-50
2024/04/04 04:43:42;;;;;;;24.30;16.55;;;;;;;;;;5031525;28;20495;-50
2024/04/04 04:46:08;;;;;;;23.80;16.08;;;;;;;;;;5031406;28;20032;-48
2024/04/04 04:48:35;;;;;;;23.17;17.30;;;;;;;;;;5030284;28;20030;-50
2024/04/04 04:51:02;;;;;;;26.70;16.30;;;;;;;;;;5033382;28;20252;-49
2024/04/04 04:53:28;;;;;;;;;;;;;;;;;;5035743;28;20463;-48
2024/04/04 04:55:54;;;;;;;22.25;14.55;;;;;;;;;;5035238;28;20437;-49
2024/04/04 04:58:21;;;;;;;22.63;15.45;;;;;;;;;;5035202;28;20487;-48
2024/04/04 05:00:49;;;;;;;26.80;16.23;;;;;;;;;;5034982;28;20026;-50
2024/04/04 05:03:17;;;;;;;25.50;18.35;;;;;;;;;;5035109;28;20092;-48
2024/04/04 05:05:43;;;;;;;25.90;18.08;;;;;;;;;;5033943;28;20033;-48
2024/04/04 05:08:09;;;;;;;21.48;16.52;;;;;;;;;;5034919;28;20028;-50
2024/04/04 05:10:35;;;;;;;21.75;16.60;;;;;;;;;;5034826;28;20025;-48
2024/04/04 05:13:01;;;;;;;29.05;17.73;;;;;;;;;;5034868;28;20144;-49
2024/04/04 05:15:27;;;;;;;30.30;19.10;;;;;;;;;;5035143;28;20033;-49
2024/04/04 05:17:54;;;;;;;26.65;18.33;;;;;;;;;;5034815;28;20029;-48
2024/04/04 05:20:20;;;;;;;24.10;16.23;;;;;;;;;;5033528;28;20033;-48
2024/04/04 05:22:46;;;;;;;27.33;16.25;;;;;;;;;;5034659;28;20036;-48
2024/04/04 05:25:14;;;;;;;25.80;17.50;;;;;;;;;;5034914;28;20032;-49
2024/04/04 05:27:43;;;;;;;30.73;19.33;;;;;;;;;;5034696;28;20100;-48
2024/04/04 05:30:10;;;;;;;29.10;19.88;;;;;;;;;;5034566;28;20026;-48
2024/04/04 05:32:40;;;;;;;30.23;20.92;;;;;;;;;;5034743;28;20029;-48
2024/04/04 05:35:07;;;;;;;24.90;18.80;;;;;;;;;;5034624;28;20033;-51
2024/04/04 05:37:33;;;;;;;27.27;18.77;;;;;;;;;;5033502;28;20034;-48
2024/04/04 05:39:59;;;;;;;25.40;17.63;;;;;;;;;;5034274;28;20033;-48
2024/04/04 05:42:29;;;;;;;26.43;16.63;;;;;;;;;;5033296;28;20044;-51
2024/04/04 05:44:56;;;;;;;30.80;18.77;;;;;;;;;;5034402;28;20049;-49
2024/04/04 05:47:22;;;;;;;25.17;17.77;;;;;;;;;;5033110;28;20029;-49
2024/04/04 05:49:48;;;;;;;26.77;20.13;;;;;;;;;;5034053;28;20025;-48
2024/04/04 05:52:14;;;;;;;36.65;18.77;;;;;;;;;;5034203;28;20055;-48
2024/04/04 05:54:41;;;;;;;25.10;17.40;;;;;;;;;;5034204;28;20033;-48
2024/04/04 05:57:07;;;;;;;26.50;17.05;;;;;;;;;;5034077;28;20075;-48
2024/04/04 05:59:34;;;;;;;19.52;15.52;;;;;;;;;;5034087;28;20116;-52
2024/04/04 06:02:00;;;;;;;22.23;17.17;;;;;;;;;;5033014;28;20033;-51
2024/04/04 06:04:26;;;;;;;26.77;18.27;;;;;;;;;;5034055;28;20037;-48
2024/04/04 06:06:53;;;;;;;29.43;19.97;;;;;;;;;;5033867;28;20108;-48
2024/04/04 06:09:19;;;;;;;27.03;19.30;;;;;;;;;;5033863;28;20555;-48
2024/04/04 06:11:45;;;;;;;23.70;18.95;;;;;;;;;;5032456;28;20279;-50
2024/04/04 06:14:11;;;;;;;23.60;17.97;;;;;;;;;;5033951;28;20484;-48
2024/04/04 06:16:37;;;;;;;25.83;19.50;;;;;;;;;;5033862;28;20029;-50
2024/04/04 06:19:04;;;;;;;31.75;19.00;;;;;;;;;;5033812;28;20061;-47
2024/04/04 06:21:30;;;;;;;29.98;18.95;;;;;;;;;;5033445;28;20482;-48
2024/04/04 06:23:56;;;;;;;26.77;19.17;;;;;;;;;;5033638;28;20513;-48
2024/04/04 06:26:25;;;;;;;24.03;18.93;;;;;;;;;;5033691;28;20488;-51
2024/04/04 06:28:52;;;;;;;24.77;19.23;;;;;;;;;;5032191;28;20276;-48
2024/04/04 06:31:19;;;;;;;24.65;19.30;;;;;;;;;;5033383;28;20029;-49
2024/04/04 06:33:45;;;;;;;20.33;16.13;;;;;;;;;;5032217;28;20039;-48
2024/04/04 06:36:11;;;;;;;24.50;17.50;;;;;;;;;;5015686;28;20761;-48
2024/04/04 06:38:37;;;;;;;23.90;17.20;;;;;;;;;;5033398;28;20025;-48
2024/04/04 06:41:04;;;;;;;26.52;17.27;;;;;;;;;;5033183;28;20555;-48
2024/04/04 06:43:30;;;;;;;26.02;17.05;;;;;;;;;;5033230;28;20029;-48
2024/04/04 06:45:56;;;;;;;23.40;15.68;;;;;;;;;;5032038;28;20033;-48
2024/04/04 06:48:22;;;;;;;20.98;14.80;;;;;;;;;;5033161;28;20483;-48
2024/04/04 06:50:48;;;;;;;23.08;17.73;;;;;;;;;;5031680;28;20112;-50
2024/04/04 06:53:15;;;;;;;22.25;15.82;;;;;;;;;;5033151;28;20029;-48
2024/04/04 06:55:41;;;;;;;20.20;15.85;;;;;;;;;;5033033;28;20029;-49
2024/04/04 06:58:07;;;;;;;18.10;15.00;;;;;;;;;;5031722;28;20056;-51
2024/04/04 07:00:33;;;;;;;21.92;15.68;;;;;;;;;;5031631;28;20042;-49
2024/04/04 07:02:59;;;;;;;18.75;14.60;;;;;;;;;;5031660;28;20033;-49
2024/04/04 07:05:26;;;;;;;18.92;14.52;;;;;;;;;;5032741;28;20112;-50
2024/04/04 07:07:52;;;;;;;20.58;15.43;;;;;;;;;;5032944;28;20059;-48
2024/04/04 07:10:18;;;;;;;22.20;16.00;;;;;;;;;;5031492;28;20402;-48
2024/04/04 07:12:44;;;;;;;16.80;13.80;;;;;;;;;;5032669;28;20041;-48
2024/04/04 07:15:11;;;;;;;18.20;14.40;;;;;;;;;;5032789;28;20025;-49
2024/04/04 07:17:37;;;;;;;17.77;13.90;;;;;;;;;;5031366;28;20034;-48
2024/04/04 07:20:05;;;;;;;16.90;13.05;;;;;;;;;;5032291;28;20032;-49
2024/04/04 07:22:31;;;;;;;19.67;13.25;;;;;;;;;;5032557;28;20036;-49
2024/04/04 07:24:58;;;;;;;18.70;13.33;;;;;;;;;;5032536;28;20396;-49
2024/04/04 07:27:24;;;;;;;15.35;12.30;;;;;;;;;;5031107;28;20108;-48
2024/04/04 07:29:50;;;;;;;18.92;12.90;;;;;;;;;;5032309;28;20034;-48
2024/04/04 07:32:16;;;;;;;19.00;13.15;;;;;;;;;;5031106;28;20040;-49
2024/04/04 07:34:42;;;;;;;16.52;12.40;;;;;;;;;;5032286;28;20065;-48
2024/04/04 07:37:08;;;;;;;17.52;12.52;;;;;;;;;;5032220;28;20029;-48
2024/04/04 07:39:35;;;;;;;21.58;13.27;;;;;;;;;;5032175;28;20040;-48
2024/04/04 07:42:01;;;;;;;18.20;13.60;;;;;;;;;;5030888;28;20037;-51
2024/04/04 07:44:28;;;;;;;21.23;13.95;;;;;;;;;;5032151;28;20034;-48
2024/04/04 07:46:54;;;;;;;24.30;15.57;;;;;;;;;;5030811;28;20036;-51
2024/04/04 07:49:21;;;;;;;19.70;13.77;;;;;;;;;;5031983;28;20024;-48
2024/04/04 07:51:50;;;;;;;18.70;14.43;;;;;;;;;;5030681;28;20029;-48
2024/04/04 07:54:16;;;;;;;18.60;16.08;;;;;;;;;;5032036;28;20037;-48
2024/04/04 07:56:43;;;;;;;19.10;14.68;;;;;;;;;;5032012;28;20044;-49
2024/04/04 07:59:09;;;;;;;24.85;16.35;;;;;;;;;;5031842;28;20033;-49
2024/04/04 08:01:37;;;;;;;28.27;18.50;;;;;;;;;;5031978;28;20033;-48
2024/04/04 08:04:03;;;;;;;29.98;20.02;;;;;;;;;;5031783;28;20587;-48
2024/04/04 08:06:30;;;;;;;27.83;19.50;;;;;;;;;;5031887;28;20029;-48
2024/04/04 08:08:56;;;;;;;27.58;20.65;;;;;;;;;;5031772;28;20069;-48
2024/04/04 08:11:22;;;;;;;32.13;20.80;;;;;;;;;;5031766;28;20057;-48
2024/04/04 08:13:48;;;;;;;27.27;19.50;;;;;;;;;;5031743;28;20549;-50
2024/04/04 08:16:17;;;;;;;30.63;20.00;;;;;;;;;;5031765;28;20078;-50
2024/04/04 08:18:43;;;;;;;27.45;17.85;;;;;;;;;;5031522;28;20104;-49
2024/04/04 08:21:09;;;;;;;29.55;19.23;;;;;;;;;;5031470;28;20029;-48
2024/04/04 08:23:35;;;;;;;22.92;16.77;;;;;;;;;;5031630;28;20037;-51
2024/04/04 08:26:03;;;;;;;25.92;17.27;;;;;;;;;;5031130;28;20108;-49
2024/04/04 08:28:29;;;;;;;23.38;16.65;;;;;;;;;;5031438;28;20483;-50
2024/04/04 08:30:56;;;;;;;25.75;16.98;;;;;;;;;;5031452;28;20030;-48
2024/04/04 08:33:24;;;;;;;23.90;18.25;;;;;;;;;;5031468;28;20033;-50
2024/04/04 08:35:50;;;;;;;25.85;17.75;;;;;;;;;;5031663;28;20061;-48
2024/04/04 08:38:16;;;;;;;26.25;20.10;;;;;;;;;;5031975;28;20307;-48
2024/04/04 08:40:43;;;;;;;28.95;20.17;;;;;;;;;;5030040;28;20122;-49
2024/04/04 08:43:10;;;;;;;26.85;19.63;;;;;;;;;;5031891;28;20046;-48
2024/04/04 08:45:45;;;;;;;34.70;20.13;;;;;;;;;;5031351;28;20034;-49
2024/04/04 08:48:13;;;;;;;30.73;17.40;;;;;;;;;;5031356;28;20101;-49
2024/04/04 08:50:45;;;;;;;26.83;17.35;;;;;;;;;;5031244;28;20242;-49
2024/04/04 08:53:12;;;;;;;22.30;15.90;;;;;;;;;;5031872;28;20041;-49
2024/04/04 08:55:38;;;;;;;24.85;17.63;;;;;;;;;;5031386;28;20500;-48
2024/04/04 08:58:04;;;;;;;21.95;16.05;;;;;;;;;;5031274;28;20380;-48
2024/04/04 09:00:30;;;;;;;21.55;16.52;;;;;;;;;;5031244;28;20535;-49
2024/04/04 09:02:57;;;;;;;24.33;16.93;;;;;;;;;;5031226;28;20033;-50
2024/04/04 09:05:23;;;;;;;23.33;17.10;;;;;;;;;;5031349;28;20101;-49
2024/04/04 09:07:49;;;;;;;23.45;16.45;;;;;;;;;;5031148;28;20100;-49
2024/04/04 09:10:17;;;;;;;23.58;15.18;;;;;;;;;;5031141;28;20029;-48
2024/04/04 09:12:44;;;;;;;19.70;14.48;;;;;;;;;;5031208;28;20506;-48
2024/04/04 09:15:10;;;;;;;22.42;13.40;;;;;;;;;;5031342;28;20025;-48
2024/04/04 09:17:37;;;;;;;25.90;16.00;;;;;;;;;;5031038;28;20091;-49
2024/04/04 09:20:05;;;;;;;16.25;13.05;;;;;;;;;;5029822;28;20037;-49
2024/04/04 09:22:31;;;;;;;19.00;12.40;;;;;;;;;;5031010;28;20033;-48
2024/04/04 09:24:59;;;;;;;17.33;11.07;;;;;;;;;;5031100;28;20026;-49
2024/04/04 09:27:25;;;;;;;21.13;13.60;;;;;;;;;;5030870;28;20498;-49
2024/04/04 09:29:55;;;;;;;18.07;11.33;;;;;;;;;;5030896;28;20022;-49
2024/04/04 09:32:21;;;;;;;18.20;12.25;;;;;;;;;;5030896;28;20814;-49
2024/04/04 09:34:47;;;;;;;17.63;9.60;;;;;;;;;;5031030;28;20048;-49
2024/04/04 09:37:13;;;;;;;14.15;7.03;;;;;;;;;;5030414;28;20029;-48
2024/04/04 09:39:40;;;;;;;15.57;8.80;;;;;;;;;;5034416;28;20498;-49
2024/04/04 09:42:08;;;;;;;10.65;7.25;;;;;;;;;;5034361;28;20029;-48
2024/04/04 09:44:34;;;;;;;;;;;;;;;;;;5017184;28;20105;-49
2024/04/04 09:47:03;;;;;;;15.43;7.75;;;;;;;;;;5034362;28;20052;-49
2024/04/04 09:49:30;;;;;;;17.40;8.25;;;;;;;;;;5034285;28;20029;-48
2024/04/04 09:51:56;;;;;;;;;;;;;;;;;;5033367;28;20026;-49
2024/04/04 09:54:23;;;;;;;13.40;6.90;;;;;;;;;;5034230;28;19968;-49
2024/04/04 09:56:50;;;;;;;18.40;7.78;;;;;;;;;;5032906;28;20034;-49
2024/04/04 09:59:23;;;;;;;11.07;6.72;;;;;;;;;;5032981;28;20030;-48
2024/04/04 10:01:49;;;;;;;12.05;5.93;;;;;;;;;;5032577;28;20040;-49
2024/04/04 10:04:16;;;;;;;9.70;6.32;;;;;;;;;;5034078;28;20108;-48
2024/04/04 10:06:44;;;;;;;;;;;;;;;;;;5034443;28;20060;-50
2024/04/04 10:09:19;;;;;;;10.73;6.05;;;;;;;;;;5033994;28;19944;-49
2024/04/04 10:11:45;;;;;;;12.02;7.35;;;;;;;;;;5033784;28;20025;-49
2024/04/04 10:14:15;;;;;;;13.80;7.63;;;;;;;;;;5033886;28;20030;-51
2024/04/04 10:16:45;;;;;;;11.10;7.00;;;;;;;;;;5033291;28;20116;-49
2024/04/04 10:19:17;;;;;;;12.20;6.40;;;;;;;;;;5044950;28;20034;-49
2024/04/04 10:21:44;;;;;;;14.75;7.15;;;;;;;;;;5012583;28;20038;-49
2024/04/04 10:24:19;;;;;;;10.30;6.65;;;;;;;;;;5013958;28;20018;-49
2024/04/04 10:26:52;;;;;;;11.50;6.50;;;;;;;;;;5013581;28;20018;-51
2024/04/04 10:29:18;;;;;;;15.10;6.03;;;;;;;;;;5062866;23;20041;-49
2024/04/04 10:31:44;;;;;;;10.87;6.70;;;;;;;;;;5042223;28;20021;-49
2024/04/04 10:34:12;;;;;;;11.03;6.93;;;;;;;;;;5037839;28;20041;-49
2024/04/04 10:36:42;;;;;;;10.32;5.80;;;;;;;;;;5050544;28;20318;-49
2024/04/04 10:39:10;;;;;;;14.52;5.63;;;;;;;;;;5048803;28;20036;-49
2024/04/04 10:41:39;;;;;;;8.27;5.05;;;;;;;;;;5047574;28;20032;-49
2024/04/04 10:44:13;;;;;;;11.20;6.47;;;;;;;;;;5042331;28;20510;-52
2024/04/04 10:46:45;;;;;;;13.32;6.28;;;;;;;;;;5041085;28;20067;-50
2024/04/04 10:49:13;;;;;;;9.68;4.57;;;;;;;;;;5050927;28;20391;-48
2024/04/04 10:51:42;;;;;;;11.32;5.13;;;;;;;;;;5043178;28;20102;-49
2024/04/04 10:54:08;;;;;;;17.15;5.70;;;;;;;;;;5037111;28;20402;-48
2024/04/04 10:56:35;;;;;;;9.95;5.15;;;;;;;;;;5046813;28;20033;-49
2024/04/04 10:59:01;;;;;;;9.23;4.67;;;;;;;;;;5050357;28;20078;-49
2024/04/04 11:01:29;;;;;;;10.75;5.78;;;;;;;;;;5038105;28;20252;-48
2024/04/04 11:03:55;;;;;;;12.55;5.05;;;;;;;;;;5031564;28;20033;-49
2024/04/04 11:06:21;;;;;;;7.63;4.35;;;;;;;;;;5044425;28;20036;-48
2024/04/04 11:08:52;;;;;;;13.52;5.18;;;;;;;;;;5039455;28;20028;-50
2024/04/04 11:11:21;;;;;;;8.18;4.47;;;;;;;;;;5032422;28;20064;-48
2024/04/04 11:13:49;;;;;;;13.35;4.15;;;;;;;;;;5033246;28;20037;-49
2024/04/04 11:16:16;;;;;;;9.70;4.55;;;;;;;;;;5036934;28;20115;-49
2024/04/04 11:18:42;;;;;;;;;;;;;;;;;;5040764;28;20391;-49
2024/04/04 11:21:09;;;;;;;15.52;5.13;;;;;;;;;;5030622;28;20007;-49
2024/04/04 11:23:35;;;;;;;14.20;5.00;;;;;;;;;;5039781;28;20022;-48
2024/04/04 11:26:02;;;;;;;10.90;3.90;;;;;;;;;;5042804;28;20068;-49
2024/04/04 11:28:28;;;;;;;6.57;3.45;;;;;;;;;;5048670;28;20151;-48
2024/04/04 11:30:55;;;;;;;9.02;4.15;;;;;;;;;;5023206;28;20028;-49
2024/04/04 11:33:21;;;;;;;10.93;5.25;;;;;;;;;;5050573;28;20107;-49
2024/04/04 11:35:47;;;;;;;9.75;4.70;;;;;;;;;;5047280;28;20045;-48
2024/04/04 11:38:13;;;;;;;12.40;4.93;;;;;;;;;;5050523;28;20029;-49
2024/04/04 11:40:40;;;;;;;9.17;4.53;;;;;;;;;;5011082;28;20041;-49
2024/04/04 11:43:07;;;;;;;13.75;5.43;;;;;;;;;;5045096;28;20036;-49
2024/04/04 11:45:35;;;;;;;11.88;5.20;;;;;;;;;;5046015;28;20033;-49
2024/04/04 11:48:02;;;;;;;9.00;4.70;;;;;;;;;;5029160;28;20032;-51
2024/04/04 11:50:31;;;;;;;;;;;;;;;;;;5029504;28;20036;-48
2024/04/04 11:52:58;;;;;;;11.18;4.88;;;;;;;;;;5045373;28;19905;-49
2024/04/04 11:55:25;;;;;;;7.95;4.43;;;;;;;;;;5030368;28;20068;-49
2024/04/04 11:57:51;;;;;;;9.13;5.38;;;;;;;;;;5032384;28;20036;-51
2024/04/04 12:00:18;;;;;;;9.50;4.50;;;;;;;;;;5044058;28;20033;-48
2024/04/04 12:02:44;;;;;;;;;;;;;;;;;;5049810;28;20083;-49
2024/04/04 12:05:10;;;;;;;15.07;4.78;;;;;;;;;;5050419;28;20400;-51
2024/04/04 12:07:36;;;;;;;9.73;4.73;;;;;;;;;;5048665;28;20446;-52
2024/04/04 12:10:03;;;;;;;8.87;4.17;;;;;;;;;;5049998;28;20104;-51
2024/04/04 12:12:29;;;;;;;5.78;3.72;;;;;;;;;;5033629;28;20022;-49
2024/04/04 12:14:55;;;;;;;10.18;4.07;;;;;;;;;;5047336;28;20032;-49
2024/04/04 12:17:23;;;;;;;11.53;5.07;;;;;;;;;;5034630;28;20107;-51
2024/04/04 12:19:49;;;;;;;13.70;5.07;;;;;;;;;;5046933;28;20079;-50
2024/04/04 12:22:15;;;;;;;10.07;4.90;;;;;;;;;;5049593;28;20037;-49
2024/04/04 12:24:41;;;;;;;13.07;4.60;;;;;;;;;;5049932;28;20044;-49
2024/04/04 12:27:08;;;;;;;10.63;4.23;;;;;;;;;;5041153;28;20264;-49
2024/04/04 12:29:34;;;;;;;12.30;4.68;;;;;;;;;;5038295;28;20777;-49
2024/04/04 12:32:00;;;;;;;8.90;4.93;;;;;;;;;;5036682;28;20033;-49
2024/04/04 12:34:26;;;;;;;10.83;4.23;;;;;;;;;;5031058;28;20052;-50
2024/04/04 12:36:52;;;;;;;10.40;4.40;;;;;;;;;;5030951;28;20640;-49
2024/04/04 12:39:19;;;;;;;6.95;3.85;;;;;;;;;;5028504;28;20079;-49
2024/04/04 12:41:45;;;;;;;11.52;4.40;;;;;;;;;;5035077;28;20209;-49
2024/04/04 12:44:12;;;;;;;9.20;4.78;;;;;;;;;;5039703;28;20524;-49
2024/04/04 12:46:41;;;;;;;11.07;4.77;;;;;;;;;;5041181;28;20060;-50
2024/04/04 12:49:07;;;;;;;13.02;5.13;;;;;;;;;;5048706;28;20079;-49
2024/04/04 12:51:34;;;;;;;10.73;4.53;;;;;;;;;;5030573;28;20112;-49
2024/04/04 12:54:02;;;;;;;8.63;4.45;;;;;;;;;;5040789;28;20026;-49
2024/04/04 12:56:28;;;;;;;14.32;5.15;;;;;;;;;;5029673;28;20021;-49
2024/04/04 12:58:54;;;;;;;10.93;4.53;;;;;;;;;;5029787;28;20034;-49
2024/04/04 13:01:20;;;;;;;10.57;5.10;;;;;;;;;;5027552;28;20256;-49
2024/04/04 13:03:46;;;;;;;9.65;4.88;;;;;;;;;;5029385;28;20295;-49
2024/04/04 13:06:13;;;;;;;10.80;5.55;;;;;;;;;;5038459;28;20036;-49
2024/04/04 13:08:40;;;;;;;14.45;5.20;;;;;;;;;;5047239;28;20021;-49
2024/04/04 13:11:08;;;;;;;10.85;5.13;;;;;;;;;;5047502;28;20025;-50
2024/04/04 13:13:34;;;;;;;12.63;5.25;;;;;;;;;;5046010;28;20041;-49
2024/04/04 13:16:01;;;;;;;13.18;5.30;;;;;;;;;;5044967;28;20119;-49
2024/04/04 13:18:27;;;;;;;10.95;5.25;;;;;;;;;;5034452;28;20022;-49
2024/04/04 13:20:54;;;;;;;12.80;4.97;;;;;;;;;;5034566;28;20041;-50
2024/04/04 13:23:20;;;;;;;8.85;4.30;;;;;;;;;;5033409;28;20503;-50
2024/04/04 13:25:46;;;;;;;8.05;4.50;;;;;;;;;;5034761;28;20076;-51
2024/04/04 13:28:12;;;;;;;11.13;4.20;;;;;;;;;;5034549;28;20462;-50
2024/04/04 13:30:38;;;;;;;10.18;5.57;;;;;;;;;;5032575;28;20057;-49
2024/04/04 13:33:05;;;;;;;9.90;4.43;;;;;;;;;;5034496;28;20041;-50
2024/04/04 13:35:31;;;;;;;12.95;4.93;;;;;;;;;;5033292;28;20029;-49
2024/04/04 13:37:57;;;;;;;9.02;4.13;;;;;;;;;;5033845;28;20040;-49
2024/04/04 13:40:23;;;;;;;9.35;4.57;;;;;;;;;;5034032;28;20022;-48
2024/04/04 13:42:50;;;;;;;8.00;4.38;;;;;;;;;;5033193;28;20120;-49
2024/04/04 13:45:16;;;;;;;13.13;4.72;;;;;;;;;;5031501;28;20022;-49
2024/04/04 13:47:42;;;;;;;10.68;5.25;;;;;;;;;;5022637;28;20369;-48
2024/04/04 13:50:09;;;;;;;9.25;4.43;;;;;;;;;;5051635;28;20029;-51
2024/04/04 13:52:35;;;;;;;9.82;5.18;;;;;;;;;;5037145;28;20148;-49
2024/04/04 13:55:02;;;;;;;13.13;5.50;;;;;;;;;;5033051;28;20479;-48
2024/04/04 13:57:29;;;;;;;9.02;4.28;;;;;;;;;;5039806;28;20032;-49
2024/04/04 13:59:55;;;;;;;10.00;4.97;;;;;;;;;;5053916;28;20053;-49
2024/04/04 14:02:22;;;;;;;13.52;4.28;;;;;;;;;;5035013;28;20026;-49
2024/04/04 14:04:48;;;;;;;7.03;3.60;;;;;;;;;;5037594;28;20029;-48
2024/04/04 14:07:15;;;;;;;7.53;3.55;;;;;;;;;;5052574;28;20047;-49
2024/04/04 14:09:41;;;;;;;8.07;3.72;;;;;;;;;;5052305;28;20021;-48
2024/04/04 14:12:08;;;;;;;11.80;3.38;;;;;;;;;;5053812;28;20490;-49
2024/04/04 14:14:34;;;;;;;9.80;3.50;;;;;;;;;;5053830;28;20051;-48
2024/04/04 14:17:03;;;;;;;;;;;;;;;;;;5054213;28;20507;-48
2024/04/04 14:19:29;;;;;;;11.57;3.63;;;;;;;;;;5053591;28;19905;-49
2024/04/04 14:21:59;;;;;;;6.75;3.90;;;;;;;;;;5053406;28;20041;-49